createdAt,value
2018-09-27T18:26:49.982Z,-40.00
2018-09-27T18:27:49.913Z,-40.00
2018-09-27T18:29:43.174Z,-40.00
2018-09-27T18:49:43.959Z,24.18
2018-09-27T18:50:43.925Z,24.18
2018-09-27T18:52:36.903Z,24.16
2018-09-27T18:53:36.884Z,24.21
2018-09-27T18:55:29.937Z,24.28
2018-09-27T18:56:29.797Z,24.29
2018-09-27T18:58:22.747Z,24.29
2018-09-27T18:59:22.743Z,24.30
2018-09-27T19:01:15.732Z,24.33
2018-09-27T19:02:15.694Z,24.36
2018-09-27T19:04:08.651Z,24.36
2018-09-27T19:05:08.649Z,24.40
2018-09-27T19:07:01.629Z,24.40
2018-09-27T19:08:01.603Z,24.43
2018-09-27T19:09:54.564Z,24.36
2018-09-27T19:10:54.576Z,24.50
2018-09-27T19:12:47.536Z,24.48
2018-09-27T19:13:47.517Z,24.42
2018-09-27T19:15:40.502Z,24.38
2018-09-27T19:16:40.496Z,24.47
2018-09-27T19:18:33.424Z,24.38
2018-09-27T19:19:33.442Z,24.38
2018-09-27T19:21:26.397Z,24.48
2018-09-27T19:22:26.418Z,24.42
2018-09-27T19:24:19.344Z,24.45
2018-09-27T19:25:19.340Z,24.48
2018-09-27T19:27:12.334Z,24.54
2018-09-27T19:28:12.351Z,24.47
2018-09-27T19:30:05.293Z,24.55
2018-09-27T19:31:05.267Z,24.51
2018-09-27T19:32:58.269Z,24.54
2018-09-27T19:33:58.238Z,24.55
2018-09-27T19:35:51.796Z,24.55
2018-09-27T19:36:51.630Z,24.48
2018-09-27T19:38:44.590Z,24.53
2018-09-27T19:39:44.589Z,24.53
2018-09-27T19:41:37.574Z,24.45
2018-09-27T19:42:37.548Z,24.48
2018-09-27T19:44:31.032Z,24.50
2018-09-27T19:45:30.500Z,24.50
2018-09-27T19:47:23.492Z,24.51
2018-09-27T19:48:23.452Z,24.50
2018-09-27T19:50:16.409Z,24.47
2018-09-27T19:51:16.408Z,24.43
2018-09-27T19:53:09.400Z,24.42
2018-09-27T19:54:09.369Z,24.39
2018-09-27T19:56:02.379Z,24.40
2018-09-27T19:57:02.328Z,24.45
2018-09-27T19:58:55.294Z,24.40
2018-09-27T19:59:55.295Z,24.42
2018-09-27T20:03:56.261Z,24.45
2018-09-27T20:04:56.182Z,24.48
2018-09-27T20:06:49.163Z,24.50
2018-09-27T20:07:49.157Z,24.47
2018-09-27T20:09:42.055Z,24.51
2018-09-27T20:10:42.053Z,24.50
2018-09-27T20:12:35.036Z,24.58
2018-09-27T20:13:35.009Z,24.60
2018-09-27T20:15:27.964Z,24.68
2018-09-27T20:16:28.030Z,24.68
2018-09-27T20:18:20.948Z,24.70
2018-09-27T20:19:20.912Z,24.68
2018-09-27T20:21:13.887Z,24.68
2018-09-27T20:22:13.971Z,24.70
2018-09-27T20:24:06.870Z,24.68
2018-09-27T20:25:06.857Z,24.69
2018-09-27T20:26:59.834Z,24.68
2018-09-27T20:27:59.831Z,24.70
2018-09-27T20:31:39.928Z,24.84
2018-09-27T20:32:39.893Z,24.76
2018-09-27T20:34:05.985Z,24.78
2018-09-27T20:35:05.891Z,24.80
2018-09-27T20:35:43.091Z,-40.00
2018-09-27T20:38:22.723Z,24.78
2018-09-27T20:39:22.694Z,24.76
2018-09-27T20:41:15.691Z,24.85
2018-09-27T20:42:15.697Z,24.81
2018-09-27T20:44:08.696Z,24.78
2018-09-27T20:45:08.655Z,24.76
2018-09-27T20:52:55.057Z,24.81
2018-09-27T20:53:55.068Z,24.80
2018-09-27T20:55:47.975Z,24.91
2018-09-27T20:56:47.958Z,24.88
2018-09-27T20:58:40.968Z,24.88
